LEZL/SVQ METAR and TAF weather

Enter ICAO airport designator
Station Type Date Time Source
LEZL METAR 2020/07/06 19:30 UTC NOAA

LEZL 061930Z 26007KT CAVOK ///// Q1012 NOSIG


Station Type Date Time Source
LEZL Decoded METAR 2020/07/06 19:30 UTC NOAA

Sevilla / San Pablo, Spain (LEZL) 37-25N 005-54W 31M
Jul 06, 2020 - 03:30 PM EDT / 2020.07.06 1930 UTC
Wind: from the W (260 degrees) at 8 MPH (7 KT):0
Visibility: greater than 7 mile(s):0
Pressure (altimeter): 29.88 in. Hg (1012 hPa)
ob: LEZL 061930Z 26007KT CAVOK ///// Q1012 NOSIG
cycle: 19

Station Type Date Time Source
LEZL TAF 2020/07/06 15:27 UTC NOAA

TAF TAF LEZL 061400Z 0615/0715 22005KT CAVOK TX42/0616Z TN22/0705Z
TEMPO 0617/0620 23015KT

Example: see airport list